createdAt,value
2023-06-19T00:02:45.342Z,28.23
2023-06-19T00:05:48.894Z,27.10
2023-06-19T00:08:53.037Z,26.98
2023-06-19T00:11:56.561Z,26.94
2023-06-19T00:15:00.195Z,28.01
2023-06-19T00:18:03.915Z,28.68
2023-06-19T00:21:09.163Z,28.79
2023-06-19T00:24:13.112Z,29.25
2023-06-19T00:27:16.609Z,29.77
2023-06-19T00:30:20.197Z,30.01
2023-06-19T00:33:23.729Z,30.32
2023-06-19T00:36:29.515Z,29.70
2023-06-19T00:39:33.413Z,30.11
2023-06-19T00:42:36.975Z,31.23
2023-06-19T00:45:40.727Z,30.60
2023-06-19T00:48:47.147Z,29.91
2023-06-19T00:51:50.776Z,28.32
2023-06-19T00:54:55.480Z,27.30
2023-06-19T00:57:59.392Z,26.47
2023-06-19T01:01:09.604Z,25.89
2023-06-19T01:04:14.686Z,25.50
2023-06-19T01:07:36.216Z,24.38
2023-06-19T01:10:43.935Z,24.47
2023-06-19T01:13:53.597Z,24.50
2023-06-19T01:16:57.402Z,24.30
2023-06-19T01:20:08.666Z,24.10
2023-06-19T01:23:13.375Z,23.37
2023-06-19T01:26:20.166Z,23.10
2023-06-19T01:29:23.951Z,22.90
2023-06-19T01:32:57.496Z,23.10
2023-06-19T01:36:05.301Z,23.41
2023-06-19T01:39:10.244Z,23.16
2023-06-19T01:42:15.279Z,23.30
2023-06-19T01:45:18.880Z,23.48
2023-06-19T01:48:22.789Z,23.52
2023-06-19T01:51:26.317Z,23.57
2023-06-19T01:54:29.907Z,23.63
2023-06-19T01:57:35.751Z,23.35
2023-06-19T02:00:40.234Z,23.20
2023-06-19T02:03:43.911Z,23.44
2023-06-19T02:06:47.762Z,23.26
2023-06-19T02:09:52.232Z,23.03
2023-06-19T02:12:55.798Z,23.02
2023-06-19T02:16:00.530Z,23.35
2023-06-19T02:19:05.288Z,23.65
2023-06-19T02:22:09.221Z,23.83
2023-06-19T02:25:12.795Z,23.92
2023-06-19T02:28:20.559Z,23.81
2023-06-19T02:31:27.186Z,24.26
2023-06-19T02:34:30.908Z,24.68
2023-06-19T02:37:35.241Z,25.12
2023-06-19T02:40:45.037Z,25.03
2023-06-19T02:44:12.872Z,25.17
2023-06-19T02:47:29.539Z,25.48
2023-06-19T02:51:11.130Z,25.61
2023-06-19T02:54:26.184Z,25.10
2023-06-19T02:57:59.087Z,24.93
2023-06-19T03:01:41.840Z,24.57
2023-06-19T03:04:46.152Z,24.45
2023-06-19T03:07:49.639Z,24.33
2023-06-19T03:10:53.257Z,24.48
2023-06-19T03:13:58.941Z,24.50
2023-06-19T03:17:05.861Z,24.55
2023-06-19T03:20:13.790Z,24.64
2023-06-19T03:23:24.274Z,24.69
2023-06-19T03:26:28.053Z,24.81
2023-06-19T03:29:36.582Z,24.82
2023-06-19T03:32:43.698Z,24.96
2023-06-19T03:35:59.361Z,25.13
2023-06-19T03:39:14.372Z,25.02
2023-06-19T03:42:19.584Z,25.06
2023-06-19T03:45:23.992Z,25.02
2023-06-19T03:48:27.824Z,24.73
2023-06-19T03:51:32.271Z,24.86
2023-06-19T03:54:35.861Z,25.19
2023-06-19T04:01:38.454Z,24.71
2023-06-19T04:04:42.123Z,24.51
2023-06-19T04:07:52.035Z,24.64
2023-06-19T04:10:55.757Z,24.44
2023-06-19T04:14:02.003Z,24.34
2023-06-19T04:17:07.217Z,24.38
2023-06-19T04:20:26.235Z,24.27
2023-06-19T04:23:32.862Z,23.83
2023-06-19T04:26:38.922Z,23.96
2023-06-19T04:29:48.815Z,24.27
2023-06-19T04:33:07.255Z,24.40
2023-06-19T04:36:13.777Z,24.30
2023-06-19T04:39:20.706Z,24.23
2023-06-19T04:42:26.574Z,24.18
2023-06-19T04:45:41.709Z,23.93
2023-06-19T04:48:54.257Z,23.83
2023-06-19T04:52:05.790Z,23.85
2023-06-19T04:55:22.973Z,24.02
2023-06-19T05:02:09.379Z,24.13
2023-06-19T05:05:21.572Z,24.33
2023-06-19T05:08:42.449Z,24.30
2023-06-19T05:11:59.204Z,24.47
2023-06-19T05:15:03.358Z,24.69
2023-06-19T05:18:09.910Z,25.03
2023-06-19T05:21:43.436Z,25.12
2023-06-19T05:24:49.889Z,25.03
2023-06-19T05:32:31.604Z,24.57
2023-06-19T05:36:13.169Z,24.48
2023-06-19T05:39:23.835Z,24.51
2023-06-19T05:43:16.708Z,24.65
2023-06-19T05:48:07.115Z,24.50
2023-06-19T05:55:45.152Z,25.10
2023-06-19T05:59:09.729Z,25.22
2023-06-19T06:02:43.731Z,25.34
2023-06-19T06:05:50.960Z,25.26
2023-06-19T06:08:55.362Z,25.16
2023-06-19T06:11:58.833Z,25.15
2023-06-19T06:18:58.350Z,25.27
2023-06-19T06:22:08.310Z,25.35
2023-06-19T06:25:13.663Z,25.51
2023-06-19T06:28:17.666Z,25.79
2023-06-19T06:32:08.012Z,25.95
2023-06-19T06:35:11.816Z,26.09
2023-06-19T06:38:19.174Z,26.30
2023-06-19T06:41:30.530Z,26.34
2023-06-19T06:44:46.531Z,26.12
2023-06-19T06:47:51.730Z,26.23
2023-06-19T06:51:08.684Z,26.29
2023-06-19T06:54:36.728Z,26.13
2023-06-19T06:57:40.938Z,26.05
2023-06-19T07:01:07.479Z,26.22
2023-06-19T07:04:11.537Z,26.09
2023-06-19T07:07:36.268Z,25.88
2023-06-19T07:11:00.297Z,25.31
2023-06-19T07:14:23.861Z,24.98
2023-06-19T07:17:36.376Z,24.92
2023-06-19T07:20:49.376Z,25.09
2023-06-19T07:27:13.237Z,25.30
2023-06-19T07:30:43.204Z,25.55
2023-06-19T07:34:07.043Z,25.51
2023-06-19T07:37:19.235Z,25.48
2023-06-19T07:40:23.125Z,25.77
2023-06-19T07:43:50.072Z,25.88
2023-06-19T07:47:06.223Z,26.06
2023-06-19T07:50:20.262Z,26.00
2023-06-19T07:53:49.797Z,25.95
2023-06-19T08:06:44.890Z,25.81
2023-06-19T08:10:07.823Z,25.88
2023-06-19T08:13:28.835Z,25.92
2023-06-19T08:16:32.431Z,25.92
2023-06-19T08:19:36.493Z,25.79
2023-06-19T08:22:52.212Z,25.82
2023-06-19T08:25:58.683Z,25.86
2023-06-19T08:29:12.523Z,26.03
2023-06-19T08:32:20.138Z,26.02
2023-06-19T08:35:26.591Z,26.16
2023-06-19T08:38:30.100Z,26.32
2023-06-19T08:41:33.803Z,26.52
2023-06-19T08:44:40.592Z,26.79
2023-06-19T08:47:48.942Z,26.72
2023-06-19T08:51:06.320Z,26.65
2023-06-19T08:54:29.556Z,26.64
2023-06-19T08:57:40.697Z,26.65
2023-06-19T09:00:49.805Z,26.51
2023-06-19T09:03:56.342Z,26.47
2023-06-19T09:07:03.177Z,26.51
2023-06-19T09:10:20.626Z,26.51
2023-06-19T09:13:53.022Z,26.40
2023-06-19T09:16:58.285Z,26.39
2023-06-19T09:20:07.438Z,26.26
2023-06-19T09:23:20.300Z,26.15
2023-06-19T09:26:27.273Z,26.06
2023-06-19T09:29:32.857Z,26.02
2023-06-19T09:32:39.301Z,25.92
2023-06-19T09:35:44.707Z,25.96
2023-06-19T09:38:50.437Z,25.95
2023-06-19T09:42:02.320Z,25.92
2023-06-19T09:45:19.718Z,25.90
2023-06-19T09:48:32.458Z,25.86
2023-06-19T09:52:12.175Z,25.86
2023-06-19T09:55:19.024Z,25.84
2023-06-19T09:58:25.841Z,25.86
2023-06-19T10:01:36.126Z,25.81
2023-06-19T10:05:00.355Z,25.74
2023-06-19T10:08:06.690Z,25.71
2023-06-19T10:11:10.388Z,25.68
2023-06-19T10:14:14.681Z,25.62
2023-06-19T10:17:31.725Z,25.67
2023-06-19T10:21:18.004Z,25.70
2023-06-19T10:28:02.233Z,25.60
2023-06-19T10:31:22.590Z,25.58
2023-06-19T10:34:58.554Z,25.52
2023-06-19T10:38:51.341Z,25.52
2023-06-19T10:42:29.890Z,25.51
2023-06-19T10:45:34.816Z,25.54
2023-06-19T10:48:39.621Z,25.48
2023-06-19T10:52:18.752Z,25.44
2023-06-19T10:55:41.459Z,25.45
2023-06-19T10:58:45.133Z,25.47
2023-06-19T11:01:56.420Z,25.45
2023-06-19T11:05:00.070Z,25.41
2023-06-19T11:08:05.224Z,25.38
2023-06-19T11:11:09.353Z,25.37
2023-06-19T11:14:18.123Z,25.27
2023-06-19T11:17:31.055Z,25.20
2023-06-19T11:20:50.216Z,25.19
2023-06-19T11:23:53.783Z,25.16
2023-06-19T11:27:00.991Z,25.19
2023-06-19T11:30:06.837Z,25.20
2023-06-19T11:33:26.390Z,25.24
2023-06-19T11:36:31.544Z,25.27
2023-06-19T11:39:41.663Z,25.28
2023-06-19T11:43:02.191Z,25.15
2023-06-19T11:47:21.078Z,25.07
2023-06-19T11:50:35.121Z,25.07
2023-06-19T11:54:03.681Z,25.05
2023-06-19T11:57:37.837Z,24.92
2023-06-19T12:00:51.046Z,24.69
2023-06-19T12:03:58.546Z,24.57
2023-06-19T12:07:08.261Z,24.48
2023-06-19T12:10:30.208Z,24.37
2023-06-19T12:13:34.303Z,24.31
2023-06-19T12:16:41.277Z,24.18
2023-06-19T12:20:15.518Z,24.09
2023-06-19T12:23:25.194Z,23.98
2023-06-19T12:27:01.760Z,23.85
2023-06-19T12:30:01.803Z,23.71
2023-06-19T12:33:49.366Z,23.58
2023-06-19T12:37:13.037Z,23.45
2023-06-19T12:44:03.721Z,23.20
2023-06-19T12:47:34.851Z,23.09
2023-06-19T12:50:52.278Z,22.96
2023-06-19T12:54:24.792Z,22.80
2023-06-19T12:57:33.123Z,22.59
2023-06-19T13:00:59.189Z,22.40
2023-06-19T13:04:05.013Z,22.27
2023-06-19T13:07:21.525Z,22.13
2023-06-19T13:10:25.833Z,21.97
2023-06-19T13:13:38.773Z,21.82
2023-06-19T14:11:16.050Z,20.39
2023-06-19T16:25:53.615Z,18.18
2023-06-19T16:30:15.272Z,18.07
2023-06-19T16:51:50.066Z,17.40
2023-06-19T17:41:07.377Z,16.97
2023-06-19T17:46:37.216Z,16.56
2023-06-19T18:12:17.246Z,16.21
2023-06-19T18:12:30.644Z,16.10
2023-06-19T18:25:13.686Z,16.00
2023-06-19T19:11:53.539Z,16.00
2023-06-19T19:15:53.112Z,15.82
2023-06-19T19:20:10.915Z,15.74
2023-06-19T19:23:42.524Z,15.71
2023-06-19T19:28:08.695Z,15.73
2023-06-19T19:32:15.405Z,15.67
2023-06-19T19:36:20.567Z,15.66
2023-06-19T19:39:54.670Z,15.70
2023-06-19T19:57:20.020Z,15.63
2023-06-19T20:00:39.983Z,15.60
2023-06-19T20:01:17.844Z,15.73
2023-06-19T20:12:56.652Z,15.29
2023-06-19T20:16:41.012Z,15.15
2023-06-19T20:31:23.940Z,14.80
2023-06-19T20:38:59.297Z,14.85
2023-06-19T20:51:11.253Z,14.87
2023-06-19T21:04:07.852Z,15.07
2023-06-19T21:20:06.973Z,15.32
2023-06-19T21:23:46.982Z,15.42
2023-06-19T21:27:15.500Z,15.53
2023-06-19T21:31:06.601Z,15.63
2023-06-19T21:35:43.554Z,15.67
2023-06-19T21:43:23.693Z,15.73
2023-06-19T22:03:13.805Z,15.86
2023-06-19T22:52:20.185Z,33.52
2023-06-19T22:55:48.414Z,33.22
2023-06-19T23:04:13.408Z,34.62
2023-06-19T23:07:24.562Z,34.75
2023-06-19T23:10:28.164Z,35.24
2023-06-19T23:13:43.288Z,35.64
2023-06-19T23:16:59.365Z,35.29
2023-06-19T23:20:28.908Z,35.55
2023-06-19T23:36:58.004Z,35.29
2023-06-19T23:44:08.434Z,33.61
2023-06-19T23:50:44.800Z,32.56
2023-06-19T23:53:49.072Z,33.28
2023-06-19T23:57:48.099Z,33.59
